Latest Weather Observations for Mount Wellington

IDT60801

Issued at 2:05 am EST Friday 3 October 2014 (issued every 30 minutes, with the page automatically refreshed every 10 minutes)

About weather observations | Map of weather stations | Latest weather observations for TAS | Other Formats
Station Details ID: 094087 Name: MOUNT WELLINGTON Lat: -42.90 Lon: 147.24 Height: 1260.47 m
Data from the previous 72 hours. | See also: Recent months at Mount Wellington
Date/Time
EST
Temp
°C
App
Temp
°C
Dew
Point
Rel
Hum
%
Delta-T
°C
Wind Press
QNH
hPa
Press
MSL
hPa
Rain
since 9 am
mm
Dir
 
Spd
km/h
Gust
km/h
Spd
kts
Gust
kts
03/02:00am -2.0 -13.8 -2.7 95 0.2 WSW 50 61 27 33 - - 0.0
03/01:30am -1.9 -12.4 -2.6 95 0.2 WSW 43 65 23 35 - - 0.0
03/01:00am -1.8 -11.9 -2.5 95 0.2 WSW 41 59 22 32 - - 0.0
03/12:55am -1.8 -11.9 -2.5 95 0.2 WSW 41 61 22 33 - - 0.0
03/12:30am -1.7 -12.4 -2.5 94 0.2 WSW 44 63 24 34 - - 0.0
03/12:11am -1.8 -11.5 -2.6 94 0.2 SW 39 65 21 35 - - 0.0
03/12:00am -1.8 -11.9 -2.5 95 0.2 SW 41 54 22 29 - - 0.0
 
Date/Time
EST
Temp
°C
App
Temp
°C
Dew
Point
Rel
Hum
%
Delta-T
°C
Wind Press
QNH
hPa
Press
MSL
hPa
Rain
since 9 am
mm
Dir
 
Spd
km/h
Gust
km/h
Spd
kts
Gust
kts
02/11:30pm -1.7 -11.4 -2.3 96 0.1 SW 39 59 21 32 - - 0.0
02/11:09pm -1.6 -11.3 -2.4 94 0.2 SW 39 57 21 31 - - 0.0
02/11:00pm -1.6 -12.1 -2.6 93 0.3 WSW 43 57 23 31 - - 0.0
02/10:34pm -1.6 -12.1 -2.6 93 0.3 WSW 43 63 23 34 - - 0.0
02/10:30pm -1.6 -12.1 -2.4 94 0.2 WSW 43 59 23 32 - - 0.0
02/10:00pm -1.4 -12.0 -2.1 95 0.2 WSW 44 61 24 33 - - 0.0
02/09:35pm -1.4 -13.2 -2.4 93 0.3 WSW 50 70 27 38 - - 0.0
02/09:30pm -1.3 -14.4 -2.4 92 0.3 WSW 57 70 31 38 - - 0.0
02/09:00pm -1.3 -16.3 -1.9 96 0.2 WSW 67 82 36 44 - - 0.0
02/08:35pm -1.2 -13.7 -1.8 96 0.2 WSW 54 74 29 40 - - 0.0
02/08:30pm -1.2 -14.3 -1.8 96 0.2 WSW 57 70 31 38 - - 0.0
02/08:29pm -1.2 -14.6 -1.8 96 0.2 WSW 59 70 32 38 - - 0.0
02/08:08pm -1.2 -10.9 -2.3 92 0.3 WSW 39 63 21 34 - - 0.0
02/08:00pm -1.0 -9.6 -2.4 90 0.5 WSW 33 52 18 28 - - 0.0
02/07:39pm -0.9 -11.0 -2.5 89 0.5 WSW 41 61 22 33 - - 0.0
02/07:30pm -0.9 -11.4 -2.3 90 0.5 WSW 43 59 23 32 - - 0.0
02/07:12pm -0.9 -13.1 -2.5 89 0.5 WSW 52 70 28 38 - - 0.0
02/07:00pm -1.1 -14.6 -2.5 90 0.5 WSW 59 76 32 41 - - 0.0
02/06:30pm -0.4 -12.4 -1.2 94 0.3 WSW 52 80 28 43 - - 0.0
02/06:00pm 0.1 -10.2 -0.9 93 0.4 WSW 43 61 23 33 - - 0.0
02/05:30pm 0.6 -9.4 -1.3 87 0.8 WSW 41 61 22 33 - - 0.0
02/05:29pm 0.6 -9.4 -1.3 87 0.8 WSW 41 61 22 33 - - 0.0
02/05:00pm 0.9 -10.5 -1.8 82 1.1 WSW 48 63 26 34 - - 0.0
02/04:30pm 1.4 -9.0 -1.5 81 1.1 WSW 43 69 23 37 - - 0.0
02/04:00pm 2.3 -7.7 -1.5 76 1.5 WSW 41 65 22 35 - - 0.0
02/03:35pm 3.6 -6.3 -1.0 72 1.8 WSW 41 63 22 34 - - 0.0
02/03:30pm 3.0 -6.5 -0.5 78 1.4 W 39 52 21 28 - - 0.0
02/03:00pm 4.4 -5.0 0.2 74 1.7 W 39 59 21 32 - - 0.0
02/02:30pm 3.9 -7.2 -0.3 74 1.7 WSW 48 69 26 37 - - 0.0
02/02:04pm 5.5 -5.1 1.1 73 1.9 WSW 46 70 25 38 - - 0.0
02/02:00pm 4.9 -5.7 1.0 76 1.7 WSW 46 61 25 33 - - 0.0
02/01:31pm 5.2 -4.8 2.2 81 1.3 WSW 44 65 24 35 - - 0.0
02/01:30pm 5.3 -4.5 2.3 81 1.3 WSW 43 59 23 32 - - 0.0
02/01:10pm 5.0 -5.4 2.0 81 1.3 WSW 46 65 25 35 - - 0.0
02/01:00pm 5.0 -5.3 2.4 83 1.1 WSW 46 65 25 35 - - 0.0
02/12:33pm 5.0 -6.2 2.0 81 1.3 WSW 50 70 27 38 - - 0.0
02/12:30pm 5.3 -5.8 2.3 81 1.3 WSW 50 63 27 34 - - 0.0
02/12:00pm 4.8 -6.0 1.7 80 1.3 WSW 48 69 26 37 - - 0.0
02/11:30am 4.7 -7.2 2.2 84 1.1 WSW 54 74 29 40 - - 0.0
02/11:00am 3.6 -8.8 2.6 93 0.4 WSW 57 82 31 44 - - 0.0
02/10:30am 4.0 -7.1 2.4 89 0.7 WSW 50 69 27 37 - - 0.0
02/10:00am 3.8 -8.7 2.3 90 0.7 WSW 57 78 31 42 - - 0.0
02/09:33am 3.2 -8.4 2.0 92 0.5 WSW 52 70 28 38 - - 0.0
02/09:30am 3.4 -8.1 2.1 91 0.6 WSW 52 67 28 36 - - 0.0
02/09:00am 3.9 -7.3 2.1 88 0.8 WSW 50 72 27 39 - - 0.0
02/08:30am 3.1 -8.8 1.9 92 0.5 WSW 54 74 29 40 - - 0.0
02/08:00am 2.5 -9.8 1.9 96 0.3 WSW 56 76 30 41 - - 0.0
02/07:30am 2.3 -9.7 1.7 96 0.3 WSW 54 72 29 39 - - 0.0
02/07:07am 2.3 -11.0 1.6 95 0.3 WSW 61 80 33 43 - - 0.0
02/07:00am 2.3 -11.4 1.4 94 0.4 WSW 63 80 34 43 - - 0.0
02/06:30am 2.2 -11.6 1.2 93 0.4 WSW 63 83 34 45 - - 0.0
02/06:10am 2.1 -10.9 1.1 93 0.4 WSW 59 95 32 51 - - 0.0
02/06:01am 2.0 -9.3 1.3 95 0.3 WSW 50 72 27 39 - - 0.0
02/06:00am 2.0 -9.3 1.3 95 0.3 WSW 50 69 27 37 - - 0.0
02/05:37am 2.1 -8.0 1.5 96 0.3 WSW 44 69 24 37 - - 0.0
02/05:30am 2.0 -7.2 1.4 96 0.2 WSW 39 56 21 30 - - 0.0
02/05:03am 2.1 -7.8 1.5 96 0.3 WSW 43 61 23 33 - - 0.0
02/05:00am 2.1 -8.0 1.4 95 0.3 WSW 44 63 24 34 - - 0.0
02/04:30am 2.1 -10.3 1.5 96 0.3 WSW 56 80 30 43 - - 0.0
02/04:00am 2.0 -8.5 1.6 97 0.2 WSW 46 67 25 36 - - 0.0
02/03:30am 2.1 -10.3 1.5 96 0.3 WSW 56 76 30 41 - - 0.0
02/03:00am 2.3 -10.1 1.7 96 0.3 WSW 56 78 30 42 - - 0.0
02/02:30am 2.3 -10.1 1.6 95 0.3 W 56 83 30 45 - - 0.0
02/02:00am 2.2 -11.2 1.3 94 0.4 W 61 83 33 45 - - 0.0
02/01:30am 2.2 -13.6 1.5 95 0.3 W 74 96 40 52 - - 0.0
02/01:00am 3.0 -12.5 1.1 87 0.8 W 72 98 39 53 - - 0.0
02/12:30am 2.6 -12.3 1.3 91 0.5 W 69 91 37 49 - - 0.0
02/12:00am 2.9 -12.5 1.4 90 0.6 W 72 107 39 58 - - 0.0
 
Date/Time
EST
Temp
°C
App
Temp
°C
Dew
Point
Rel
Hum
%
Delta-T
°C
Wind Press
QNH
hPa
Press
MSL
hPa
Rain
since 9 am
mm
Dir
 
Spd
km/h
Gust
km/h
Spd
kts
Gust
kts
01/11:33pm 2.2 -14.8 1.2 93 0.4 W 80 100 43 54 - - 0.0
01/11:30pm 2.2 -15.2 1.3 94 0.4 W 82 98 44 53 - - 0.0
01/11:00pm 2.3 -14.7 1.4 94 0.4 W 80 104 43 56 - - 0.0
01/10:30pm 2.3 -15.6 1.6 95 0.3 W 85 104 46 56 - - 0.0
01/10:00pm 2.3 -15.2 1.9 97 0.2 W 83 106 45 57 - - 0.0
01/09:30pm 2.0 -14.6 1.6 97 0.2 W 78 100 42 54 - - 0.0
01/09:02pm 2.2 -15.6 1.9 98 0.1 W 85 106 46 57 - - 0.0
01/09:00pm 2.1 -15.8 1.8 98 0.1 W 85 100 46 54 - - 0.0
01/08:30pm 2.0 -16.6 1.6 97 0.2 W 89 113 48 61 - - 0.0
01/08:04pm 1.8 -16.9 1.4 97 0.2 W 89 109 48 59 - - 0.0
01/08:00pm 1.8 -16.9 1.4 97 0.2 W 89 104 48 56 - - 0.0
01/07:30pm 1.6 -15.1 1.0 96 0.2 W 78 98 42 53 - - 0.0
01/07:00pm 1.4 -13.6 0.7 95 0.3 W 69 87 37 47 - - 0.0
01/06:30pm 0.9 -12.2 0.3 96 0.2 W 59 78 32 42 - - 0.0
01/06:25pm 0.8 -11.8 0.2 96 0.2 W 56 78 30 42 - - 0.0
01/06:00pm 0.6 -11.7 -0.3 94 0.4 W 54 72 29 39 - - 0.0
01/05:30pm 0.5 -10.3 -0.2 95 0.3 WSW 46 59 25 32 - - 0.0
01/05:00pm 0.8 -11.5 -0.6 90 0.5 WSW 54 67 29 36 - - 0.0
01/04:30pm 1.0 -9.9 -0.9 87 0.7 W 46 57 25 31 - - 0.0
01/04:00pm 1.0 -11.8 -1.1 86 0.8 W 56 65 30 35 - - 0.0
01/03:30pm 1.3 -11.7 -1.6 81 1.1 W 57 76 31 41 - - 0.0
01/03:00pm 1.5 -11.2 -0.4 87 0.8 W 56 80 30 43 - - 0.0
01/02:30pm 1.6 -9.9 0.1 90 0.6 WSW 50 72 27 39 - - 0.0
01/02:00pm 1.1 -10.7 0.1 93 0.4 WSW 52 63 28 34 - - 0.0
01/01:30pm 1.4 -8.9 -0.8 85 0.9 WSW 43 56 23 30 - - 0.0
01/01:00pm 1.7 -8.1 0.1 89 0.6 W 41 61 22 33 - - 0.0
01/12:56pm 1.2 -9.1 -0.9 86 0.8 W 43 61 23 33 - - 0.0
01/12:30pm 1.1 -9.7 -0.8 87 0.7 W 46 61 25 33 - - 0.0
01/12:00pm 0.6 -11.4 -1.0 89 0.7 WSW 52 74 28 40 - - 0.0
01/11:30am 0.3 -11.3 -1.0 91 0.5 WSW 50 72 27 39 - - 0.0
01/11:05am 0.1 -9.4 -0.7 94 0.3 WSW 39 59 21 32 - - 0.0
01/11:00am 0.2 -8.9 -0.5 95 0.3 WSW 37 48 20 26 - - 0.0
01/10:30am -0.5 -8.9 -1.2 95 0.2 WSW 33 44 18 24 - - 0.0
01/10:00am -0.7 -9.1 -1.3 96 0.2 WSW 33 43 18 23 - - 0.0
01/09:30am -1.3 -12.3 -1.9 96 0.2 WSW 46 56 25 30 - - 0.0
01/09:00am -1.3 -13.0 -1.9 96 0.2 WSW 50 57 27 31 - - 4.4
01/08:30am -1.5 -12.9 -2.1 96 0.1 WSW 48 57 26 31 - - 4.4
01/08:00am -2.0 -12.5 -2.6 96 0.1 WSW 43 52 23 28 - - 4.4
01/07:30am -2.4 -14.3 -3.1 95 0.1 WSW 50 65 27 35 - - 4.4
01/07:00am -2.5 -14.8 -3.0 96 0.1 WSW 52 63 28 34 - - 4.4
01/06:30am -2.7 -15.0 -3.4 95 0.1 WSW 52 63 28 34 - - 4.4
01/06:12am -2.8 -13.6 -3.5 95 0.1 WSW 44 63 24 34 - - 4.4
01/06:00am -2.9 -13.7 -3.6 95 0.1 WSW 44 54 24 29 - - 4.4
01/05:30am -2.9 -12.8 -3.6 95 0.1 WSW 39 56 21 30 - - 4.4
01/05:00am -2.8 -14.0 -3.5 95 0.1 WSW 46 56 25 30 - - 4.4
01/04:30am -3.1 -14.7 -3.8 95 0.1 WSW 48 63 26 34 - - 4.4
01/04:08am -3.1 -14.3 -3.8 95 0.1 WSW 46 65 25 35 - - 4.4
01/04:00am -3.1 -15.1 -3.8 95 0.1 WSW 50 63 27 34 - - 4.4
01/03:30am -2.9 -15.2 -3.6 95 0.1 WSW 52 67 28 36 - - 4.4
01/03:00am -2.8 -16.5 -3.5 95 0.1 WSW 59 70 32 38 - - 4.4
01/02:30am -2.9 -15.6 -3.6 95 0.1 WSW 54 65 29 35 - - 4.4
01/02:00am -3.0 -13.3 -3.7 95 0.1 WSW 41 54 22 29 - - 4.4
01/01:47am -3.2 -13.1 -3.9 95 0.1 WSW 39 46 21 25 - - 4.4
01/01:30am -3.2 -17.7 -3.9 95 0.1 WSW 63 76 34 41 - - 4.4
01/01:00am -3.1 -17.5 -3.8 95 0.1 WSW 63 74 34 40 - - 4.4
01/12:30am -3.2 -16.4 -4.2 93 0.2 WSW 56 67 30 36 - - 4.4
01/12:00am -3.1 -16.5 -4.2 92 0.2 WSW 57 70 31 38 - - 4.4
 
Date/Time
EST
Temp
°C
App
Temp
°C
Dew
Point
Rel
Hum
%
Delta-T
°C
Wind Press
QNH
hPa
Press
MSL
hPa
Rain
since 9 am
mm
Dir
 
Spd
km/h
Gust
km/h
Spd
kts
Gust
kts
30/11:30pm -3.0 -15.4 -4.1 92 0.2 WSW 52 67 28 36 - - 4.4
30/11:00pm -2.9 -15.6 -3.7 94 0.1 WSW 54 61 29 33 - - 4.4
30/10:30pm -3.0 -17.1 -3.7 95 0.1 WSW 61 70 33 38 - - 4.4
30/10:00pm -2.7 -16.7 -3.4 95 0.1 WSW 61 72 33 39 - - 4.4
30/09:30pm -2.8 -16.5 -3.6 94 0.2 WSW 59 74 32 40 - - 4.4
30/09:00pm -2.6 -17.7 -3.1 96 0.1 WSW 67 78 36 42 - - 4.4
30/08:31pm -2.2 -16.9 -2.7 96 0.1 WSW 65 83 35 45 - - 4.4
30/08:30pm -2.2 -17.3 -2.7 96 0.1 WSW 67 83 36 45 - - 4.4
30/08:13pm -2.0 -16.7 -2.6 96 0.1 WSW 65 83 35 45 - - 4.4
30/08:00pm -2.1 -16.8 -2.6 96 0.1 WSW 65 76 35 41 - - 4.4
30/07:52pm -2.2 -16.2 -2.9 95 0.1 WSW 61 80 33 43 - - 4.4
30/07:30pm -2.3 -17.0 -3.0 95 0.1 WSW 65 74 35 40 - - 4.4
30/07:00pm -2.4 -18.8 -2.9 96 0.1 WSW 74 93 40 50 - - 4.4
30/06:33pm -1.1 -17.4 -1.5 97 0.1 WSW 74 93 40 50 - - 4.4
30/06:30pm -1.3 -18.3 -1.7 97 0.1 WSW 78 93 42 50 - - 4.4
30/06:00pm -0.7 -16.5 -1.1 97 0.1 WSW 72 87 39 47 - - 4.4
30/05:41pm -0.2 -15.0 -0.6 97 0.1 WSW 67 78 36 42 - - 4.4
30/05:30pm -0.1 -10.9 -0.5 97 0.2 WSW 46 69 25 37 - - 4.4
30/05:28pm 0.1 -10.1 -0.3 97 0.2 WSW 43 67 23 36 - - 4.2
30/05:00pm 1.1 -8.6 0.5 96 0.2 W 41 57 22 31 - - 4.0
30/04:33pm 1.8 -5.7 1.4 97 0.2 W 30 52 16 28 - - 4.0
30/04:30pm 1.9 -5.2 1.5 97 0.2 W 28 41 15 22 - - 4.0
30/04:00pm 2.0 -5.4 1.6 97 0.2 W 30 48 16 26 - - 4.0
30/03:46pm 2.4 -5.4 1.8 96 0.3 W 32 57 17 31 - - 4.0
30/03:30pm 3.5 -3.7 3.1 97 0.2 W 30 39 16 21 - - 4.0
30/03:00pm 1.9 -7.3 1.5 97 0.2 WNW 39 50 21 27 - - 4.0
30/02:42pm 2.0 -10.4 1.3 95 0.3 WNW 56 76 30 41 - - 4.0
30/02:30pm 2.0 -11.0 1.4 96 0.2 WNW 59 74 32 40 - - 3.8
30/02:00pm 3.0 -9.2 2.4 96 0.3 W 56 74 30 40 - - 3.4
30/01:59pm 3.1 -9.1 2.5 96 0.3 W 56 74 30 40 - - 3.4
30/01:52pm 3.0 -9.2 2.6 97 0.2 WNW 56 67 30 36 - - 3.2
30/01:30pm 2.9 -6.5 2.5 97 0.2 WSW 41 54 22 29 - - 2.0
30/01:26pm 3.2 -5.0 2.8 97 0.2 WSW 35 54 19 29 - - 1.8
30/01:24pm 3.9 -3.6 3.6 98 0.1 W 32 44 17 24 - - 1.6
30/01:00pm 4.9 -4.7 4.6 98 0.1 NNW 44 65 24 35 - - 0.6
30/12:59pm 4.9 -5.0 4.6 98 0.1 NNW 46 65 25 35 - - 0.6
30/12:30pm 4.6 -5.0 4.3 98 0.1 NW 44 59 24 32 - - 0.6
30/12:00pm 4.7 -5.7 4.4 98 0.1 NW 48 70 26 38 - - 0.6
30/11:33am 4.9 -6.2 4.5 97 0.2 NW 52 70 28 38 - - 0.6
30/11:30am 4.8 -7.1 4.4 97 0.2 NW 56 70 30 38 - - 0.6
30/11:13am 5.0 -7.4 4.4 96 0.3 NW 59 80 32 43 - - 0.2
30/11:00am 5.1 -7.4 4.2 94 0.4 NW 59 76 32 41 - - 0.0
30/10:30am 5.7 -6.8 3.9 88 0.8 NW 59 83 32 45 - - 0.0
30/10:07am 6.0 -5.8 3.0 81 1.3 NNW 54 74 29 40 - - 0.0
30/10:00am 5.6 -6.6 2.6 81 1.3 NW 56 70 30 38 - - 0.0
30/09:31am 6.5 -6.7 2.6 76 1.7 NW 61 80 33 43 - - 0.0
30/09:30am 6.4 -7.2 2.5 76 1.7 NW 63 80 34 43 - - 0.0
30/09:00am 5.7 -9.6 2.2 78 1.5 NW 72 91 39 49 - - 0.0
30/08:30am 4.9 -10.4 2.3 83 1.1 NW 72 98 39 53 - - 0.0
30/08:00am 4.2 -11.9 2.1 86 0.9 NW 76 96 41 52 - - 0.0
30/07:30am 3.3 -13.2 2.0 91 0.6 NW 78 98 42 53 - - 0.0
30/07:01am 3.2 -13.7 1.7 90 0.6 NW 80 100 43 54 - - 0.0
30/07:00am 3.2 -13.7 1.7 90 0.6 NW 80 98 43 53 - - 0.0
30/06:30am 3.0 -14.8 2.0 93 0.4 NW 85 106 46 57 - - 0.0
30/06:00am 2.9 -14.4 2.0 94 0.4 NW 82 102 44 55 - - 0.0
30/05:30am 2.6 -14.3 2.0 96 0.3 NW 80 98 43 53 - - 0.0
30/05:00am 2.7 -13.4 2.0 95 0.3 NW 76 95 41 51 - - 0.0
30/04:30am 2.7 -13.8 1.7 93 0.4 NW 78 100 42 54 - - 0.0
30/04:14am 2.7 -13.1 1.5 92 0.5 NW 74 93 40 50 - - 0.0
30/04:00am 2.7 -12.7 1.5 92 0.5 NW 72 89 39 48 - - 0.0
30/03:30am 2.8 -12.6 1.5 91 0.5 NW 72 89 39 48 - - 0.0
30/03:12am 2.9 -12.9 1.3 89 0.7 NW 74 95 40 51 - - 0.0
30/03:00am 3.0 -12.8 1.4 89 0.7 NW 74 91 40 49 - - 0.0
30/02:30am 3.1 -14.3 1.2 87 0.8 NW 82 102 44 55 - - 0.0

Other Formats:

Comma delimited format used in spreadsheet applications
http://www.bom.gov.au/fwo/IDT60801/IDT60801.95979.axf

JavaScript Object Notation format (JSON) in row-major order
http://www.bom.gov.au/fwo/IDT60801/IDT60801.95979.json